Time;durP1;ratioP1;P1;durP2;ratioP2;P2;SDS_P1;SDS_P2;PMS_P1;PMS_P2;Temp;Humidity;BMP_temperature;BMP_pressure;BME280_temperature;BME280_humidity;BME280_pressure;Samples;Min_cycle;Max_cycle;Signal;HPM_P1;HPM_P2
2024/03/03 00:00:53;;;;;;;19.73;11.40;;;;;;;6.11;80.76;96201.19;5033119;28;20634;-88
2024/03/03 00:03:20;;;;;;;22.67;11.57;;;;;;;5.85;81.06;96128.34;5033073;28;20222;-88
2024/03/03 00:05:47;;;;;;;16.97;12.20;;;;;;;6.19;81.26;96189.31;5020327;28;20207;-88
2024/03/03 00:08:14;;;;;;;18.63;13.70;;;;;;;6.21;81.41;96195.13;5013503;28;20249;-88
2024/03/03 00:10:40;;;;;;;20.73;13.70;;;;;;;6.35;81.24;96192.72;5013396;28;20199;-89
2024/03/03 00:13:07;;;;;;;22.00;13.63;;;;;;;6.25;81.22;96177.69;5013277;28;20210;-88
2024/03/03 00:15:34;;;;;;;20.27;13.07;;;;;;;6.19;81.21;96177.94;5012733;28;20231;-88
2024/03/03 00:18:03;;;;;;;16.83;10.43;;;;;;;6.13;81.12;96185.88;5011873;28;20281;-88
2024/03/03 00:20:29;;;;;;;16.47;10.67;;;;;;;5.92;82.57;96179.03;5012944;28;20654;-88
2024/03/03 00:22:56;;;;;;;18.47;11.33;;;;;;;6.04;82.10;96166.38;5011884;28;20278;-88
2024/03/03 00:25:23;;;;;;;18.60;13.07;;;;;;;6.28;81.43;96171.84;5012029;28;20592;-88
2024/03/03 00:27:50;;;;;;;26.50;11.97;;;;;;;6.28;81.40;96173.72;5012937;28;20265;-87
2024/03/03 00:30:17;;;;;;;17.87;12.93;;;;;;;6.13;82.38;96163.97;5012863;28;20207;-88
2024/03/03 00:32:44;;;;;;;19.00;12.13;;;;;;;6.26;81.96;96184.53;5012867;28;20753;-88
2024/03/03 00:35:14;;;;;;;18.40;12.80;;;;;;;6.10;81.75;96173.22;5011438;28;20287;-88
2024/03/03 00:37:41;;;;;;;21.67;12.67;;;;;;;6.14;82.42;96181.41;5012369;28;20199;-88
2024/03/03 00:40:09;;;;;;;20.50;12.67;;;;;;;6.24;82.09;96180.59;5012969;28;20230;-88
2024/03/03 00:42:38;;;;;;;20.53;13.00;;;;;;;6.06;81.69;96156.31;5012849;28;20302;-88
2024/03/03 00:45:06;;;;;;;19.77;12.40;;;;;;;6.18;81.74;96181.66;5011785;28;20204;-88
2024/03/03 00:47:32;;;;;;;23.97;12.17;;;;;;;6.11;82.52;96189.84;5012615;28;20196;-88
2024/03/03 00:49:59;;;;;;;29.50;13.90;;;;;;;5.76;82.03;96140.47;5012613;28;20646;-87
2024/03/03 00:52:28;;;;;;;21.53;14.13;;;;;;;5.89;82.33;96142.59;5000444;28;20274;-88
2024/03/03 00:54:55;;;;;;;25.07;13.50;;;;;;;6.04;82.57;96166.38;5007453;28;20228;-89
2024/03/03 00:57:21;;;;;;;18.00;12.07;;;;;;;5.97;82.80;96150.00;5011984;28;20202;-87
2024/03/03 00:59:48;;;;;;;17.33;12.40;;;;;;;6.02;81.72;96120.13;5012062;28;20261;-88
2024/03/03 01:02:15;;;;;;;20.20;12.30;;;;;;;6.27;80.84;96180.03;5013093;28;20227;-88
2024/03/03 01:04:42;;;;;;;18.50;13.03;;;;;;;6.01;81.17;96163.47;5012603;28;20203;-88
2024/03/03 01:07:07;;;;;;;21.40;12.63;;;;;;;6.01;81.81;96171.38;5012300;28;20662;-88
2024/03/03 01:09:36;;;;;;;19.27;11.47;;;;;;;5.90;82.09;96170.56;5012197;28;20269;-88
2024/03/03 01:12:03;;;;;;;18.87;12.43;;;;;;;5.86;81.88;96154.47;5011479;28;20199;-88
2024/03/03 01:14:30;;;;;;;17.73;11.93;;;;;;;5.75;81.27;96157.38;5011702;28;20202;-88
2024/03/03 01:16:57;;;;;;;18.17;11.90;;;;;;;5.37;81.97;96133.09;5013051;28;20211;-87
2024/03/03 01:19:24;;;;;;;15.93;12.13;;;;;;;5.45;81.68;96151.03;4997641;28;20218;-91
2024/03/03 01:21:51;;;;;;;17.30;12.43;;;;;;;5.44;81.77;96149.47;5015300;28;20198;-89
2024/03/03 01:24:17;;;;;;;15.60;11.80;;;;;;;5.74;80.69;96147.88;5016017;28;20203;-90
2024/03/03 01:26:46;;;;;;;19.47;14.10;;;;;;;5.87;79.73;96150.75;5013908;28;20238;-90
2024/03/03 01:29:12;;;;;;;15.33;11.47;;;;;;;5.26;80.00;96071.59;5016539;28;20265;-89
2024/03/03 01:31:43;;;;;;;18.83;12.30;;;;;;;5.70;80.37;96160.03;5015820;28;20207;-89
2024/03/03 01:34:09;;;;;;;23.07;13.53;;;;;;;5.17;80.37;96077.69;5015838;28;20207;-90
2024/03/03 01:36:36;;;;;;;23.90;12.80;;;;;;;5.59;80.72;96156.59;5016648;28;20207;-88
2024/03/03 01:39:03;;;;;;;16.07;11.90;;;;;;;5.52;81.34;96148.94;5014911;28;20262;-90
2024/03/03 01:41:30;;;;;;;17.87;12.23;;;;;;;5.55;82.38;96147.63;5014490;28;20662;-88
2024/03/03 01:43:58;;;;;;;17.17;12.00;;;;;;;5.35;81.54;96112.25;5015131;28;20227;-89
2024/03/03 01:46:25;;;;;;;21.90;11.73;;;;;;;5.20;81.77;96106.19;5015528;28;20203;-89
2024/03/03 01:48:52;;;;;;;22.47;13.17;;;;;;;5.36;81.79;96144.72;5014625;28;20218;-89
2024/03/03 01:51:19;;;;;;;26.13;13.20;;;;;;;5.21;82.88;96131.50;5015723;28;20203;-89
2024/03/03 01:53:50;;;;;;;22.07;13.97;;;;;;;5.16;82.06;96098.00;5015268;28;20199;-89
2024/03/03 01:56:18;;;;;;;21.00;12.70;;;;;;;5.43;82.37;96121.50;5015538;28;20203;-89
2024/03/03 01:58:46;;;;;;;28.97;13.97;;;;;;;5.55;83.04;96132.56;5014175;28;20654;-89
2024/03/03 02:01:16;;;;;;;24.97;15.43;;;;;;;4.94;83.22;96079.78;5015297;28;20230;-89
2024/03/03 02:03:43;;;;;;;23.40;13.80;;;;;;;5.42;83.89;96151.59;5015249;28;20223;-89
2024/03/03 02:06:10;;;;;;;20.27;14.23;;;;;;;5.26;83.78;96134.16;5015394;28;20207;-89
2024/03/03 02:08:37;;;;;;;23.13;12.93;;;;;;;5.31;83.25;96148.16;5014871;28;20273;-89
2024/03/03 02:11:06;;;;;;;17.60;12.60;;;;;;;4.88;83.25;96094.81;5014275;28;20633;-88
2024/03/03 02:13:32;;;;;;;16.63;12.43;;;;;;;5.29;83.08;96147.59;5017336;28;20205;-89
2024/03/03 02:15:59;;;;;;;25.63;14.00;;;;;;;5.14;83.41;96129.13;5034043;28;20195;-89
2024/03/03 02:18:28;;;;;;;20.43;15.10;;;;;;;5.07;83.45;96128.59;5034737;28;20202;-90
2024/03/03 02:20:54;;;;;;;26.43;15.73;;;;;;;5.08;83.25;96123.06;5034784;28;20208;-89
2024/03/03 02:23:22;;;;;;;23.00;13.37;;;;;;;5.02;83.74;96137.28;5034980;28;20214;-89
2024/03/03 02:25:49;;;;;;;22.50;12.70;;;;;;;5.05;84.51;96167.63;5034801;28;20235;-90
2024/03/03 02:28:16;;;;;;;34.00;11.20;;;;;;;4.98;84.99;96162.59;5034077;28;20199;-89
2024/03/03 02:30:43;;;;;;;19.53;12.60;;;;;;;4.73;85.27;96149.34;5016470;28;20207;-89
2024/03/03 02:33:11;;;;;;;18.73;13.40;;;;;;;4.68;85.81;96144.06;5014979;28;20203;-90
2024/03/03 02:35:37;;;;;;;21.70;14.13;;;;;;;4.82;85.83;96167.03;5014326;28;20199;-89
2024/03/03 02:38:05;;;;;;;33.43;13.60;;;;;;;4.79;85.57;96148.31;5014918;28;20238;-90
2024/03/03 02:40:33;;;;;;;20.40;11.97;;;;;;;4.80;85.52;96170.97;5014728;28;20655;-89
2024/03/03 02:43:01;;;;;;;15.77;12.87;;;;;;;4.74;85.40;96179.94;5013167;28;20227;-90
2024/03/03 02:45:28;;;;;;;20.80;11.93;;;;;;;4.57;85.56;96156.41;5029984;28;20326;-89
2024/03/03 02:47:56;;;;;;;20.57;13.20;;;;;;;4.70;85.74;96165.69;5014640;28;20211;-90
2024/03/03 02:50:23;;;;;;;16.23;11.53;;;;;;;4.41;86.12;96181.88;5013220;28;20200;-90
2024/03/03 02:52:50;;;;;;;16.17;10.33;;;;;;;4.33;86.20;96159.47;5013409;28;20199;-90
2024/03/03 02:55:17;;;;;;;21.80;10.37;;;;;;;4.23;86.11;96145.47;5014122;28;20203;-90
2024/03/03 02:57:45;;;;;;;21.07;10.97;;;;;;;4.43;85.19;96176.38;5013269;28;20196;-91
2024/03/03 03:00:12;;;;;;;18.17;10.03;;;;;;;4.25;84.84;96125.72;5014418;28;20207;-89
2024/03/03 03:02:39;;;;;;;14.03;9.07;;;;;;;3.90;84.87;96118.41;5021578;28;20222;-90
2024/03/03 03:05:06;;;;;;;18.37;9.67;;;;;;;4.24;85.68;96189.19;5014055;28;20211;-92
2024/03/03 03:07:33;;;;;;;16.23;9.97;;;;;;;4.09;85.65;96177.50;5013065;28;20650;-90
2024/03/03 03:10:00;;;;;;;11.73;9.33;;;;;;;4.04;85.86;96176.69;5014585;28;20206;-92
2024/03/03 03:12:27;;;;;;;24.43;10.00;;;;;;;4.11;85.65;96193.88;5023864;28;20211;-91
2024/03/03 03:14:55;;;;;;;17.63;10.83;;;;;;;4.18;86.17;96183.09;5019365;28;20234;-91
2024/03/03 03:17:22;;;;;;;17.20;10.43;;;;;;;4.14;86.17;96166.22;5013086;28;20200;-93
2024/03/03 03:19:49;;;;;;;11.83;9.77;;;;;;;4.39;84.54;96179.53;5013601;28;20585;-92
2024/03/03 03:22:16;;;;;;;14.07;9.70;;;;;;;4.33;84.15;96177.91;5012957;28;20203;-91
2024/03/03 03:24:43;;;;;;;12.13;10.83;;;;;;;4.48;84.23;96179.81;5013777;28;20203;-91
2024/03/03 03:27:10;;;;;;;11.07;8.47;;;;;;;4.27;83.47;96143.91;5013725;28;20197;-92
2024/03/03 03:29:37;;;;;;;10.00;8.97;;;;;;;4.38;83.83;96182.44;5012927;28;20654;-93
2024/03/03 03:32:06;;;;;;;11.70;10.00;;;;;;;4.48;83.35;96186.94;5013689;28;20195;-90
2024/03/03 03:34:33;;;;;;;11.60;10.27;;;;;;;4.37;83.52;96186.88;5013985;28;20273;-93
2024/03/03 03:37:00;;;;;;;11.57;10.20;;;;;;;4.40;82.74;96188.22;5013529;28;20211;-92
2024/03/03 03:39:27;;;;;;;11.47;9.10;;;;;;;4.09;83.10;96163.56;5013564;28;20203;-91
2024/03/03 03:41:55;;;;;;;11.90;9.20;;;;;;;4.27;83.53;96184.22;5013002;28;20199;-90
2024/03/03 03:44:22;;;;;;;20.17;9.73;;;;;;;4.22;83.50;96192.09;5022783;28;20665;-92
2024/03/03 03:46:49;;;;;;;15.37;10.73;;;;;;;4.02;83.87;96182.19;5033428;28;20198;-92
2024/03/03 03:49:17;;;;;;;14.10;10.03;;;;;;;4.03;84.29;96209.34;5014824;28;20312;-92
2024/03/03 03:51:44;;;;;;;18.50;10.53;;;;;;;3.90;84.22;96166.59;5012956;28;20207;-91
2024/03/03 03:54:11;;;;;;;13.80;10.77;;;;;;;4.11;83.97;96191.22;5013816;28;20203;-92
2024/03/03 03:56:38;;;;;;;12.03;9.97;;;;;;;4.38;82.42;96221.94;5012476;28;20208;-92
2024/03/03 03:59:04;;;;;;;11.53;9.93;;;;;;;4.26;82.27;96208.97;5012606;28;20207;-92
2024/03/03 04:01:32;;;;;;;15.30;11.73;;;;;;;4.29;82.79;96200.53;5013521;28;20257;-92
2024/03/03 04:03:59;;;;;;;13.23;11.20;;;;;;;4.30;82.73;96210.06;4993805;28;20216;-92
2024/03/03 04:06:29;;;;;;;12.67;10.57;;;;;;;4.33;82.02;96195.56;4993987;28;20204;-92
2024/03/03 04:08:56;;;;;;;16.73;13.23;;;;;;;3.49;82.90;96155.00;5001506;28;20207;-91
2024/03/03 04:11:23;;;;;;;14.43;11.20;;;;;;;3.74;83.77;96206.22;5014009;28;20265;-92
2024/03/03 04:13:50;;;;;;;14.60;11.17;;;;;;;3.49;84.15;96173.41;5012459;28;20211;-91
2024/03/03 04:16:18;;;;;;;17.07;13.67;;;;;;;3.66;84.59;96191.69;5013262;28;20203;-91
2024/03/03 04:18:45;;;;;;;25.57;16.57;;;;;;;3.71;83.93;96190.94;5025763;28;20232;-93
2024/03/03 04:21:12;;;;;;;25.47;16.37;;;;;;;3.60;84.09;96217.19;5031409;28;20206;-92
2024/03/03 04:23:41;;;;;;;21.93;14.83;;;;;;;3.56;83.98;96205.59;4993918;28;20236;-93
2024/03/03 04:26:08;;;;;;;16.23;12.50;;;;;;;3.54;84.22;96147.13;4993941;28;20636;-92
2024/03/03 04:28:35;;;;;;;15.60;11.83;;;;;;;4.14;84.29;96217.06;4994027;28;20208;-94
2024/03/03 04:31:05;;;;;;;17.43;12.10;;;;;;;4.33;84.13;96206.09;4993729;28;20246;-92
2024/03/03 04:33:41;;;;;;;15.07;12.97;;;;;;;3.86;82.97;96168.16;5000029;28;20261;-94
2024/03/03 04:36:10;;;;;;;19.70;15.13;;;;;;;3.45;83.68;96214.44;5013565;28;20615;-91
2024/03/03 04:38:39;;;;;;;20.80;16.20;;;;;;;3.77;83.13;96211.00;4997342;28;20294;-93
2024/03/03 04:41:14;;;;;;;22.37;16.23;;;;;;;3.97;82.87;96218.25;4993775;28;20214;-92
2024/03/03 04:43:42;;;;;;;19.43;15.33;;;;;;;3.92;82.05;96221.66;4993799;28;20247;-91
2024/03/03 04:46:08;;;;;;;17.33;14.23;;;;;;;3.74;82.88;96208.88;4993560;28;20197;-91
2024/03/03 04:48:35;;;;;;;21.40;14.37;;;;;;;3.99;83.06;96230.13;4993670;28;20212;-93
2024/03/03 04:51:03;;;;;;;18.70;14.40;;;;;;;4.05;82.14;96233.59;5008308;28;20284;-92
2024/03/03 04:53:30;;;;;;;20.57;14.67;;;;;;;4.15;82.31;96242.34;5005706;28;20647;-92
2024/03/03 04:55:56;;;;;;;16.20;14.40;;;;;;;4.13;81.56;96230.47;4997323;28;20207;-92
2024/03/03 04:58:25;;;;;;;21.40;16.07;;;;;;;3.71;82.89;96183.84;4997613;28;20216;-93
2024/03/03 05:00:51;;;;;;;20.57;15.30;;;;;;;4.04;82.58;96229.38;4996953;28;20200;-91
2024/03/03 05:03:18;;;;;;;18.77;14.93;;;;;;;4.19;82.56;96241.84;4997026;28;20578;-89
2024/03/03 05:05:45;;;;;;;16.87;13.87;;;;;;;4.05;82.88;96260.69;5013143;28;20215;-89
2024/03/03 05:08:12;;;;;;;13.30;11.67;;;;;;;3.95;83.61;96244.84;4981332;28;20215;-88
2024/03/03 05:10:39;;;;;;;15.13;12.43;;;;;;;4.19;83.93;96252.38;5016024;28;20210;-89
2024/03/03 05:13:06;;;;;;;14.30;11.40;;;;;;;4.05;83.75;96226.47;4998096;28;20203;-89
2024/03/03 05:15:34;;;;;;;14.50;11.33;;;;;;;4.31;83.67;96256.41;4997695;28;20203;-87
2024/03/03 05:18:01;;;;;;;16.90;12.17;;;;;;;4.23;84.40;96248.19;5015082;28;20199;-89
2024/03/03 05:20:28;;;;;;;12.60;11.03;;;;;;;4.59;85.13;96238.66;5015311;28;20203;-89
2024/03/03 05:22:55;;;;;;;15.20;10.73;;;;;;;4.79;84.09;96246.66;5013708;28;20199;-89
2024/03/03 05:25:22;;;;;;;18.17;12.00;;;;;;;4.95;85.21;96263.31;4997416;28;20219;-89
2024/03/03 05:27:49;;;;;;;13.03;10.97;;;;;;;5.10;84.46;96281.06;5023902;28;20206;-89
2024/03/03 05:30:16;;;;;;;15.03;12.50;;;;;;;4.96;85.20;96274.69;5018537;28;20655;-88
2024/03/03 05:32:44;;;;;;;16.57;13.63;;;;;;;4.46;83.37;96260.19;5014738;28;20202;-88
2024/03/03 05:35:11;;;;;;;20.43;16.43;;;;;;;4.25;83.75;96256.63;5010524;28;20200;-86
2024/03/03 05:37:38;;;;;;;20.70;16.80;;;;;;;4.29;84.68;96263.75;4994530;28;20280;-85
2024/03/03 05:40:06;;;;;;;26.40;21.73;;;;;;;4.38;83.87;96257.00;4994960;28;20208;-85
2024/03/03 05:42:33;;;;;;;31.63;28.20;;;;;;;4.39;84.45;96260.41;4995117;28;20574;-86
2024/03/03 05:45:00;;;;;;;27.27;24.57;;;;;;;4.40;84.07;96262.00;4994668;28;20220;-85
2024/03/03 05:47:28;;;;;;;19.90;17.27;;;;;;;4.08;84.17;96254.94;4994600;28;20200;-85
2024/03/03 05:49:56;;;;;;;28.77;23.53;;;;;;;4.36;84.46;96259.06;4994537;28;20200;-86
2024/03/03 05:52:23;;;;;;;24.43;21.17;;;;;;;4.51;84.81;96260.22;5013841;28;20204;-85
2024/03/03 05:54:50;;;;;;;26.47;21.13;;;;;;;4.53;84.20;96226.47;5013987;28;20295;-85
2024/03/03 05:57:17;;;;;;;25.03;20.67;;;;;;;4.84;85.22;96261.69;5014421;28;20219;-85
2024/03/03 05:59:45;;;;;;;24.63;21.63;;;;;;;4.65;84.36;96269.28;5013927;28;20196;-85
2024/03/03 06:02:11;;;;;;;22.47;20.00;;;;;;;4.74;83.86;96227.38;5026187;28;20665;-86
2024/03/03 06:04:38;;;;;;;101.80;69.10;;;;;;;5.12;85.13;96258.66;5033824;28;20602;-85
2024/03/03 06:07:06;;;;;;;48.53;35.50;;;;;;;5.33;85.08;96259.50;5033612;28;20194;-85
2024/03/03 06:09:34;;;;;;;27.47;20.37;;;;;;;5.36;85.50;96242.34;5034295;28;20194;-85
2024/03/03 06:12:02;;;;;;;25.50;17.80;;;;;;;5.62;86.15;96256.41;5031199;28;20209;-85
2024/03/03 06:14:29;;;;;;;17.37;13.80;;;;;;;5.60;86.07;96254.00;5013681;28;20254;-85
2024/03/03 06:16:56;;;;;;;29.20;25.23;;;;;;;5.95;87.13;96262.25;5012884;28;20258;-82
2024/03/03 06:19:23;;;;;;;24.30;16.60;;;;;;;5.89;86.33;96253.53;5013654;28;20211;-85
2024/03/03 06:21:50;;;;;;;24.50;15.03;;;;;;;6.06;86.28;96267.28;5012816;28;20207;-85
2024/03/03 06:24:19;;;;;;;32.73;24.80;;;;;;;6.16;86.19;96271.78;5012815;28;20690;-84
2024/03/03 06:26:46;;;;;;;41.30;28.83;;;;;;;6.12;86.06;96252.22;5006467;28;20784;-84
2024/03/03 06:29:14;;;;;;;32.07;22.53;;;;;;;6.27;86.43;96273.34;5010801;28;20203;-84
2024/03/03 06:31:45;;;;;;;44.83;32.67;;;;;;;6.25;85.96;96270.16;5012621;28;20203;-84
2024/03/03 06:34:12;;;;;;;31.00;23.20;;;;;;;6.36;86.46;96263.81;4998342;28;20284;-84
2024/03/03 06:36:41;;;;;;;26.20;18.83;;;;;;;6.27;85.61;96267.25;5007027;28;20208;-85
2024/03/03 06:39:10;;;;;;;35.63;24.07;;;;;;;6.38;85.40;96279.41;5011462;28;20207;-84
2024/03/03 06:41:38;;;;;;;24.47;17.87;;;;;;;6.40;84.98;96264.06;5000999;28;20626;-82
2024/03/03 06:44:05;;;;;;;24.73;17.23;;;;;;;6.25;85.65;96266.75;5011944;28;20211;-82
2024/03/03 06:46:32;;;;;;;27.20;18.53;;;;;;;6.26;85.63;96278.88;5002849;28;20207;-82
2024/03/03 06:48:58;;;;;;;18.53;14.27;;;;;;;6.17;84.85;96264.63;5007768;28;20210;-81
2024/03/03 06:51:25;;;;;;;19.17;13.50;;;;;;;6.23;84.82;96258.28;4999240;28;20250;-81
2024/03/03 06:53:52;;;;;;;24.23;18.70;;;;;;;6.25;85.12;96264.09;5003596;28;20759;-82
2024/03/03 06:56:19;;;;;;;25.27;18.40;;;;;;;6.28;85.07;96269.66;5012059;28;20227;-81
2024/03/03 06:58:47;;;;;;;26.60;19.03;;;;;;;6.10;85.52;96262.25;5011780;28;20565;-83
2024/03/03 07:01:14;;;;;;;24.33;16.27;;;;;;;6.26;85.59;96268.31;5007738;28;20567;-84
2024/03/03 07:04:10;;;;;;;24.10;16.57;;;;;;;6.35;85.52;96259.59;5008881;28;20210;-83
2024/03/03 07:06:37;;;;;;;20.37;14.20;;;;;;;6.41;85.20;96264.88;5007573;28;20208;-83
2024/03/03 07:09:05;;;;;;;25.30;14.87;;;;;;;6.47;84.73;96264.59;5009676;28;20222;-83
2024/03/03 07:11:32;;;;;;;19.23;14.63;;;;;;;6.52;84.07;96267.22;5014700;28;20622;-83
2024/03/03 07:14:00;;;;;;;21.00;16.10;;;;;;;6.56;84.20;96252.41;5011771;28;20550;-83
2024/03/03 07:16:27;;;;;;;20.23;15.23;;;;;;;6.81;82.99;96266.63;5010497;28;20199;-86
2024/03/03 07:18:54;;;;;;;23.07;15.40;;;;;;;6.71;83.94;96264.00;5012407;28;20200;-88
2024/03/03 07:21:21;;;;;;;32.80;22.70;;;;;;;6.60;83.65;96248.16;5011644;28;20203;-87
2024/03/03 07:23:48;;;;;;;26.23;17.00;;;;;;;6.73;84.14;96281.19;4975211;28;20659;-87
2024/03/03 07:26:15;;;;;;;24.33;15.23;;;;;;;6.37;84.48;96228.38;5007225;28;20242;-87
2024/03/03 07:28:42;;;;;;;22.73;15.20;;;;;;;6.66;84.01;96288.63;4980500;28;20208;-88
2024/03/03 07:31:10;;;;;;;29.37;16.57;;;;;;;6.58;84.00;96265.34;5011772;28;20207;-87
2024/03/03 07:33:39;;;;;;;22.50;14.80;;;;;;;6.73;84.06;96272.47;4992873;28;20208;-87
2024/03/03 07:36:07;;;;;;;32.03;21.60;;;;;;;6.90;83.86;96299.41;5011612;28;20202;-87
2024/03/03 07:38:33;;;;;;;24.63;18.77;;;;;;;6.97;83.59;96288.50;4995598;28;20199;-88
2024/03/03 07:41:00;;;;;;;23.67;14.70;;;;;;;7.01;82.92;96274.50;5025114;28;20210;-88
2024/03/03 07:43:27;;;;;;;26.13;16.40;;;;;;;7.08;82.31;96296.16;4998668;28;20659;-88
2024/03/03 07:45:55;;;;;;;20.13;13.80;;;;;;;6.79;82.36;96250.25;4981476;28;20277;-88
2024/03/03 07:48:23;;;;;;;18.30;14.50;;;;;;;6.77;83.12;96284.09;5010298;28;20215;-87
2024/03/03 07:50:50;;;;;;;20.50;14.53;;;;;;;6.95;83.03;96296.75;5012761;28;20584;-89
2024/03/03 07:53:17;;;;;;;19.83;14.67;;;;;;;6.77;83.24;96278.78;5011577;28;20623;-88
2024/03/03 07:55:44;;;;;;;23.13;14.73;;;;;;;6.79;84.02;96288.06;5012803;28;20195;-88
2024/03/03 07:58:11;;;;;;;21.67;14.40;;;;;;;6.91;83.83;96295.69;5011634;28;20207;-88
2024/03/03 08:00:37;;;;;;;18.40;14.00;;;;;;;6.35;83.51;96206.72;5012415;28;20567;-88
2024/03/03 08:03:07;;;;;;;19.93;14.13;;;;;;;6.66;83.61;96266.66;5012773;28;20609;-88
2024/03/03 08:05:36;;;;;;;22.77;16.00;;;;;;;6.96;83.68;96289.59;5017913;28;20254;-87
2024/03/03 08:08:05;;;;;;;17.37;13.23;;;;;;;6.57;83.48;96246.06;5032486;28;20264;-87
2024/03/03 08:10:32;;;;;;;20.23;13.43;;;;;;;6.97;82.92;96272.63;5032494;28;20381;-88
2024/03/03 08:12:59;;;;;;;18.60;13.63;;;;;;;6.94;83.09;96262.63;5008343;28;20204;-87
2024/03/03 08:15:27;;;;;;;17.60;12.83;;;;;;;6.96;82.80;96306.25;4992945;28;20648;-88
2024/03/03 08:17:54;;;;;;;18.47;14.33;;;;;;;7.15;82.76;96300.38;4992992;28;20236;-86
2024/03/03 08:20:21;;;;;;;17.93;12.70;;;;;;;7.32;81.45;96306.13;5000354;28;20223;-88
2024/03/03 08:22:49;;;;;;;17.77;14.03;;;;;;;7.24;81.69;96296.09;5012194;28;20576;-86
2024/03/03 08:25:18;;;;;;;22.30;14.63;;;;;;;7.43;81.80;96304.22;5011967;28;20223;-86
2024/03/03 08:27:45;;;;;;;21.80;15.83;;;;;;;7.50;81.54;96308.16;5014003;28;20203;-85
2024/03/03 08:30:12;;;;;;;22.23;15.37;;;;;;;7.35;81.54;96269.28;5016131;28;20207;-86
2024/03/03 08:32:39;;;;;;;20.83;13.97;;;;;;;7.56;81.29;96308.94;5015789;28;20199;-86
2024/03/03 08:35:07;;;;;;;26.33;19.50;;;;;;;7.52;80.99;96313.19;5014728;28;20195;-86
2024/03/03 08:37:34;;;;;;;27.40;18.53;;;;;;;7.53;81.43;96314.78;5016066;28;20207;-87
2024/03/03 08:40:04;;;;;;;30.20;18.43;;;;;;;7.08;81.88;96258.31;5015840;28;20206;-87
2024/03/03 08:42:31;;;;;;;32.47;23.17;;;;;;;7.43;81.55;96296.28;5014303;28;20196;-87
2024/03/03 08:44:58;;;;;;;25.83;18.47;;;;;;;7.64;81.52;96320.81;5014669;28;20724;-86
2024/03/03 08:47:24;;;;;;;25.70;16.77;;;;;;;7.75;81.10;96315.19;5015737;28;20199;-85
2024/03/03 08:49:51;;;;;;;28.37;19.73;;;;;;;7.55;80.97;96317.91;5014222;28;21087;-86
2024/03/03 08:52:18;;;;;;;33.03;20.97;;;;;;;7.43;81.42;96307.66;5015417;28;20670;-86
2024/03/03 08:54:45;;;;;;;20.10;15.20;;;;;;;7.67;81.39;96314.97;5015233;28;20219;-87
2024/03/03 08:57:13;;;;;;;23.17;16.50;;;;;;;7.69;81.19;96321.56;5015245;28;20218;-86
2024/03/03 08:59:40;;;;;;;35.27;25.27;;;;;;;7.69;81.10;96313.63;5015373;28;20682;-87
2024/03/03 09:02:07;;;;;;;32.10;22.67;;;;;;;7.72;80.85;96317.59;5015619;28;20203;-87
2024/03/03 09:04:37;;;;;;;30.57;20.50;;;;;;;7.71;80.88;96302.75;5014966;28;20292;-86
2024/03/03 09:07:07;;;;;;;30.43;21.93;;;;;;;7.81;80.35;96316.72;5015463;28;20293;-84
2024/03/03 09:09:34;;;;;;;35.83;22.43;;;;;;;7.69;80.74;96310.19;4995019;28;20250;-87
2024/03/03 09:12:01;;;;;;;34.13;25.47;;;;;;;7.52;81.07;96310.53;5009843;28;20240;-86
2024/03/03 09:14:31;;;;;;;38.83;30.93;;;;;;;7.63;81.29;96316.56;5008647;28;20203;-86
2024/03/03 09:16:58;;;;;;;46.03;27.63;;;;;;;7.69;81.33;96316.25;5011697;28;20212;-86
2024/03/03 09:19:25;;;;;;;34.37;26.70;;;;;;;7.65;80.78;96317.09;4995637;28;20201;-84
2024/03/03 09:21:52;;;;;;;37.60;28.00;;;;;;;7.77;80.55;96307.72;5003500;28;20199;-83
2024/03/03 09:24:19;;;;;;;36.23;26.33;;;;;;;7.39;80.51;96274.06;5010014;28;20196;-84
2024/03/03 09:26:46;;;;;;;35.67;27.53;;;;;;;7.75;79.68;96319.69;5001125;28;20224;-84
2024/03/03 09:29:13;;;;;;;33.10;25.20;;;;;;;7.73;80.66;96303.25;5011417;28;20257;-84
2024/03/03 09:31:41;;;;;;;36.43;26.57;;;;;;;7.78;79.50;96314.63;5034596;28;20673;-84
2024/03/03 09:34:08;;;;;;;33.77;29.67;;;;;;;7.76;79.90;96308.03;5017099;28;20210;-83
2024/03/03 09:36:35;;;;;;;32.47;24.30;;;;;;;7.90;79.62;96306.34;5013412;28;20195;-83
2024/03/03 09:39:03;;;;;;;31.33;21.60;;;;;;;7.47;78.88;96239.88;5012875;28;20231;-84
2024/03/03 09:41:30;;;;;;;32.90;24.27;;;;;;;7.95;79.03;96308.94;5013545;28;20200;-85
2024/03/03 09:44:06;;;;;;;28.83;20.60;;;;;;;7.79;78.98;96289.72;5013824;28;20218;-84
2024/03/03 09:46:37;;;;;;;32.60;22.10;;;;;;;8.28;78.46;96306.56;5013405;28;20694;-84
2024/03/03 09:49:08;;;;;;;28.73;20.77;;;;;;;8.21;78.28;96295.50;5018546;28;20740;-83
2024/03/03 09:51:35;;;;;;;31.23;23.90;;;;;;;8.30;77.53;96301.81;5017111;28;20199;-83
2024/03/03 09:54:04;;;;;;;25.47;20.73;;;;;;;8.31;77.82;96322.72;5002797;28;20204;-83
2024/03/03 09:56:33;;;;;;;26.77;19.53;;;;;;;8.25;76.95;96294.69;5009130;28;20215;-84
2024/03/03 09:59:00;;;;;;;27.20;20.10;;;;;;;8.28;77.48;96294.09;5013564;28;20208;-84
2024/03/03 10:01:29;;;;;;;29.63;23.00;;;;;;;8.45;77.47;96300.91;5013064;28;20202;-83
2024/03/03 10:03:57;;;;;;;28.50;20.83;;;;;;;8.58;76.66;96311.66;5013521;28;20226;-83
2024/03/03 10:06:26;;;;;;;27.13;22.93;;;;;;;8.66;76.47;96304.16;5013354;28;20223;-83
2024/03/03 10:08:58;;;;;;;30.63;19.43;;;;;;;8.74;76.03;96301.69;5013101;28;22021;-83
2024/03/03 10:11:25;;;;;;;26.80;18.60;;;;;;;8.46;75.89;96271.44;5013312;28;20234;-83
2024/03/03 10:13:53;;;;;;;25.03;18.33;;;;;;;8.51;75.93;96286.53;5013199;28;20275;-83
2024/03/03 10:16:21;;;;;;;23.37;17.17;;;;;;;8.68;76.08;96294.84;5012812;28;20622;-83
2024/03/03 10:18:59;;;;;;;23.33;17.00;;;;;;;8.70;76.17;96283.94;5013191;28;20637;-83
2024/03/03 10:21:34;;;;;;;27.50;18.23;;;;;;;8.69;75.96;96285.03;5012943;28;20305;-83
2024/03/03 10:24:18;;;;;;;23.33;18.10;;;;;;;8.57;75.71;96286.19;5010726;28;20617;-83
2024/03/03 10:26:45;;;;;;;25.10;16.93;;;;;;;8.53;75.64;96252.56;5006919;28;20702;-83
2024/03/03 10:29:12;;;;;;;53.10;32.43;;;;;;;8.97;74.68;96283.41;5013987;28;20595;-83
2024/03/03 10:31:39;;;;;;;41.50;24.43;;;;;;;8.90;73.96;96253.75;5011255;28;20570;-83
2024/03/03 10:34:06;;;;;;;41.80;27.50;;;;;;;9.23;73.93;96283.91;5012318;28;20574;-83
2024/03/03 10:36:34;;;;;;;45.70;23.60;;;;;;;9.25;72.85;96273.78;5012602;28;20215;-83
2024/03/03 10:39:01;;;;;;;26.73;19.30;;;;;;;9.32;73.26;96282.19;5020841;28;20721;-83
2024/03/03 10:41:27;;;;;;;32.43;20.43;;;;;;;9.16;72.83;96280.78;5013100;28;20218;-84
2024/03/03 10:43:55;;;;;;;23.10;17.80;;;;;;;9.32;72.87;96269.69;5012061;28;20305;-83
2024/03/03 10:46:31;;;;;;;33.43;17.17;;;;;;;9.14;73.04;96267.00;5004505;28;20223;-84
2024/03/03 10:48:59;;;;;;;21.07;17.50;;;;;;;8.88;73.96;96271.84;5012738;28;20567;-84
2024/03/03 10:51:26;;;;;;;25.87;15.67;;;;;;;8.81;73.78;96253.59;4994841;28;20290;-84
2024/03/03 10:53:55;;;;;;;23.23;16.67;;;;;;;9.04;74.00;96262.63;5012454;28;20257;-83
2024/03/03 10:56:23;;;;;;;25.53;17.23;;;;;;;9.16;73.67;96262.22;5011947;28;20211;-84
2024/03/03 10:58:51;;;;;;;23.30;16.17;;;;;;;9.00;73.34;96253.66;5013061;28;20199;-83
2024/03/03 11:01:19;;;;;;;25.80;16.73;;;;;;;8.65;73.42;96193.81;5012217;28;20203;-84
2024/03/03 11:03:48;;;;;;;24.40;16.67;;;;;;;9.39;72.59;96260.59;5012202;28;20206;-85
2024/03/03 11:06:16;;;;;;;49.70;20.30;;;;;;;9.50;71.19;96257.50;5012729;28;20329;-84
2024/03/03 11:08:49;;;;;;;20.67;16.33;;;;;;;9.44;72.28;96258.66;5012039;28;20739;-84
2024/03/03 11:11:22;;;;;;;21.47;16.33;;;;;;;9.70;71.12;96264.41;5001696;28;20196;-83
2024/03/03 11:13:56;;;;;;;28.83;17.50;;;;;;;9.76;70.09;96257.16;5012053;28;20297;-87
2024/03/03 11:16:28;;;;;;;26.70;18.03;;;;;;;9.67;70.73;96250.91;5002922;28;20203;-86
2024/03/03 11:19:00;;;;;;;27.00;18.57;;;;;;;10.22;69.30;96248.44;5008903;28;20279;-87
2024/03/03 11:21:29;;;;;;;25.53;19.73;;;;;;;10.01;68.92;96253.31;4997857;28;20188;-87
2024/03/03 11:23:59;;;;;;;26.87;18.47;;;;;;;10.14;69.42;96235.81;4991928;28;20659;-86
2024/03/03 11:26:32;;;;;;;25.77;18.83;;;;;;;10.35;68.50;96234.44;5007870;28;20322;-86